createdAt,value
2023-03-18T00:01:23.756Z,6.75
2023-03-18T00:03:51.692Z,7.05
2023-03-18T00:06:22.066Z,7.13
2023-03-18T00:08:50.855Z,6.40
2023-03-18T00:11:20.131Z,6.38
2023-03-18T00:13:48.115Z,6.57
2023-03-18T00:16:16.692Z,7.10
2023-03-18T00:18:44.032Z,6.72
2023-03-18T00:21:11.306Z,6.89
2023-03-18T00:23:38.833Z,6.90
2023-03-18T00:26:06.867Z,6.35
2023-03-18T00:28:33.905Z,6.24
2023-03-18T00:31:09.208Z,7.05
2023-03-18T00:33:38.217Z,6.59
2023-03-18T00:36:07.391Z,6.77
2023-03-18T00:38:35.714Z,6.97
2023-03-18T00:41:11.801Z,6.90
2023-03-18T00:43:55.157Z,6.18
2023-03-18T00:46:25.736Z,6.38
2023-03-18T00:48:54.724Z,6.40
2023-03-18T00:51:24.102Z,6.40
2023-03-18T00:53:54.169Z,5.77
2023-03-18T00:56:24.117Z,5.76
2023-03-18T00:58:52.432Z,5.81
2023-03-18T01:01:20.070Z,5.47
2023-03-18T01:03:49.657Z,6.03
2023-03-18T01:06:21.121Z,5.55
2023-03-18T01:08:48.558Z,5.63
2023-03-18T01:11:16.098Z,6.40
2023-03-18T01:13:44.070Z,6.58
2023-03-18T01:16:11.952Z,6.69
2023-03-18T01:18:40.210Z,5.87
2023-03-18T01:21:08.848Z,6.47
2023-03-18T01:23:39.915Z,6.71
2023-03-18T01:26:07.746Z,6.80
2023-03-18T01:28:36.000Z,6.58
2023-03-18T01:31:04.748Z,6.28
2023-03-18T01:33:31.893Z,5.43
2023-03-18T01:36:00.681Z,5.39
2023-03-18T01:38:30.449Z,4.60
2023-03-18T01:41:04.064Z,4.53
2023-03-18T01:43:34.626Z,4.81
2023-03-18T01:46:41.341Z,4.68
2023-03-18T01:49:36.959Z,4.80
2023-03-18T01:52:10.958Z,4.64
2023-03-18T01:54:42.393Z,5.04
2023-03-18T01:57:09.593Z,4.71
2023-03-18T01:59:40.333Z,4.31
2023-03-18T02:02:10.629Z,4.64
2023-03-18T02:04:42.743Z,4.80
2023-03-18T02:07:26.718Z,4.89
2023-03-18T02:09:59.879Z,4.64
2023-03-18T02:12:33.511Z,4.73
2023-03-18T02:15:04.140Z,4.20
2023-03-18T02:17:36.028Z,4.58
2023-03-18T02:20:26.102Z,4.32
2023-03-18T02:22:58.943Z,4.29
2023-03-18T02:25:48.039Z,4.48
2023-03-18T02:28:21.693Z,4.17
2023-03-18T02:30:54.312Z,4.56
2023-03-18T02:33:26.838Z,4.44
2023-03-18T02:35:58.682Z,4.33
2023-03-18T02:38:26.599Z,4.41
2023-03-18T02:40:53.838Z,4.72
2023-03-18T02:43:32.499Z,5.05
2023-03-18T02:46:09.601Z,4.81
2023-03-18T02:48:40.652Z,4.71
2023-03-18T02:51:09.185Z,4.92
2023-03-18T02:53:36.977Z,4.95
2023-03-18T02:56:04.565Z,5.21
2023-03-18T02:58:32.469Z,5.19
2023-03-18T03:01:01.440Z,5.31
2023-03-18T03:03:29.348Z,5.29
2023-03-18T03:05:56.621Z,4.85
2023-03-18T03:08:25.197Z,4.77
2023-03-18T03:10:52.644Z,4.28
2023-03-18T03:13:22.329Z,4.19
2023-03-18T03:15:50.868Z,3.72
2023-03-18T03:18:17.920Z,3.39
2023-03-18T03:20:45.714Z,4.01
2023-03-18T03:23:15.775Z,4.05
2023-03-18T03:25:44.981Z,3.83
2023-03-18T03:28:14.194Z,3.65
2023-03-18T03:30:42.374Z,3.46
2023-03-18T03:33:10.281Z,3.34
2023-03-18T03:35:38.847Z,3.31
2023-03-18T03:38:06.598Z,3.44
2023-03-18T03:40:34.296Z,3.52
2023-03-18T03:43:01.553Z,3.54
2023-03-18T03:45:29.397Z,3.58
2023-03-18T03:47:56.541Z,3.57
2023-03-18T03:50:23.902Z,3.72
2023-03-18T03:52:50.946Z,3.75
2023-03-18T03:55:20.349Z,3.37
2023-03-18T03:57:48.448Z,3.28
2023-03-18T04:00:20.634Z,3.10
2023-03-18T04:02:51.437Z,3.24
2023-03-18T04:05:23.714Z,3.50
2023-03-18T04:07:52.567Z,3.77
2023-03-18T04:10:28.462Z,3.97
2023-03-18T04:12:55.553Z,4.07
2023-03-18T04:15:23.151Z,4.14
2023-03-18T04:17:53.363Z,4.14
2023-03-18T04:20:21.030Z,3.89
2023-03-18T04:22:49.378Z,4.19
2023-03-18T04:25:19.163Z,3.99
2023-03-18T04:27:48.846Z,3.84
2023-03-18T04:30:17.964Z,4.07
2023-03-18T04:32:56.890Z,3.93
2023-03-18T04:35:23.908Z,3.76
2023-03-18T04:37:51.433Z,3.95
2023-03-18T04:40:20.089Z,3.71
2023-03-18T04:42:48.324Z,3.90
2023-03-18T04:45:17.898Z,3.81
2023-03-18T04:47:45.632Z,4.14
2023-03-18T04:50:14.683Z,4.12
2023-03-18T04:52:43.784Z,4.53
2023-03-18T04:55:16.603Z,5.55
2023-03-18T04:57:44.557Z,6.64
2023-03-18T05:00:17.627Z,6.65
2023-03-18T05:02:47.760Z,5.34
2023-03-18T05:05:15.026Z,6.19
2023-03-18T05:07:47.261Z,6.50
2023-03-18T05:10:16.548Z,6.45
2023-03-18T05:12:43.701Z,6.45
2023-03-18T05:15:14.455Z,6.25
2023-03-18T05:17:47.793Z,6.42
2023-03-18T05:20:14.967Z,6.25
2023-03-18T05:22:44.991Z,6.42
2023-03-18T05:25:21.796Z,5.00
2023-03-18T05:27:49.712Z,7.22
2023-03-18T05:30:26.820Z,7.85
2023-03-18T05:32:55.184Z,6.55
2023-03-18T05:35:36.451Z,6.09
2023-03-18T05:38:04.800Z,7.76
2023-03-18T05:40:31.862Z,7.39
2023-03-18T05:43:05.607Z,9.37
2023-03-18T05:45:40.506Z,11.40
2023-03-18T05:48:10.765Z,11.62
2023-03-18T05:50:48.595Z,12.26
2023-03-18T05:53:19.668Z,13.42
2023-03-18T05:55:50.032Z,14.08
2023-03-18T05:58:18.880Z,13.89
2023-03-18T06:00:48.475Z,15.67
2023-03-18T06:03:15.540Z,15.10
2023-03-18T06:05:42.648Z,15.26
2023-03-18T06:08:09.837Z,16.62
2023-03-18T06:10:37.970Z,13.98
2023-03-18T06:13:06.033Z,14.13
2023-03-18T06:15:33.509Z,14.46
2023-03-18T06:18:00.795Z,14.73
2023-03-18T06:20:28.278Z,16.33
2023-03-18T06:22:55.275Z,17.24
2023-03-18T06:25:26.544Z,17.97
2023-03-18T06:27:53.895Z,16.10
2023-03-18T06:30:24.870Z,16.30
2023-03-18T06:32:53.504Z,18.93
2023-03-18T06:35:26.729Z,20.82
2023-03-18T06:37:54.808Z,20.48
2023-03-18T06:40:22.424Z,21.59
2023-03-18T06:42:51.082Z,16.85
2023-03-18T06:45:28.452Z,13.99
2023-03-18T06:48:04.482Z,14.03
2023-03-18T06:50:33.991Z,14.52
2023-03-18T06:53:01.335Z,14.94
2023-03-18T06:55:31.254Z,17.73
2023-03-18T06:57:59.224Z,18.75
2023-03-18T07:00:34.332Z,18.58
2023-03-18T07:03:01.920Z,15.39
2023-03-18T07:05:29.650Z,17.51
2023-03-18T07:07:57.014Z,15.80
2023-03-18T07:10:27.573Z,17.59
2023-03-18T07:13:00.405Z,16.55
2023-03-18T07:15:28.953Z,18.14
2023-03-18T07:18:00.530Z,18.40
2023-03-18T07:20:28.850Z,14.71
2023-03-18T07:22:55.959Z,13.38
2023-03-18T07:25:23.214Z,13.15
2023-03-18T07:27:50.805Z,16.56
2023-03-18T07:30:19.001Z,13.09
2023-03-18T07:32:46.294Z,13.50
2023-03-18T07:35:16.192Z,15.14
2023-03-18T07:37:43.598Z,13.04
2023-03-18T07:40:11.917Z,14.53
2023-03-18T07:42:38.929Z,14.11
2023-03-18T07:45:07.965Z,12.93
2023-03-18T07:47:35.247Z,13.24
2023-03-18T07:50:02.744Z,15.04
2023-03-18T07:52:29.912Z,14.76
2023-03-18T07:54:56.996Z,15.24
2023-03-18T07:57:24.254Z,15.91
2023-03-18T07:59:52.031Z,17.02
2023-03-18T08:02:20.554Z,16.19
2023-03-18T08:04:48.068Z,12.19
2023-03-18T08:07:15.173Z,9.89
2023-03-18T08:09:42.189Z,9.08
2023-03-18T08:12:09.581Z,10.71
2023-03-18T08:14:36.938Z,9.91
2023-03-18T08:17:04.202Z,9.62
2023-03-18T08:19:31.240Z,9.73
2023-03-18T08:21:58.364Z,9.86
2023-03-18T08:24:25.527Z,9.46
2023-03-18T08:26:52.680Z,8.97
2023-03-18T08:29:19.728Z,9.39
2023-03-18T08:31:46.867Z,8.80
2023-03-18T08:34:14.478Z,9.83
2023-03-18T08:36:42.964Z,10.58
2023-03-18T08:39:10.194Z,10.56
2023-03-18T08:41:37.584Z,9.42
2023-03-18T08:44:06.715Z,10.10
2023-03-18T08:46:33.814Z,10.98
2023-03-18T08:49:00.779Z,11.65
2023-03-18T08:51:29.205Z,12.19
2023-03-18T08:53:56.615Z,12.58
2023-03-18T08:56:24.117Z,11.85
2023-03-18T08:58:51.238Z,11.97
2023-03-18T09:01:22.096Z,11.36
2023-03-18T09:03:50.806Z,11.44
2023-03-18T09:06:18.625Z,11.69
2023-03-18T09:08:45.649Z,10.98
2023-03-18T09:11:13.925Z,10.47
2023-03-18T09:13:41.218Z,10.83
2023-03-18T09:16:08.513Z,11.22
2023-03-18T09:18:35.588Z,10.66
2023-03-18T09:21:03.464Z,10.26
2023-03-18T09:23:31.881Z,10.92
2023-03-18T09:26:00.616Z,10.52
2023-03-18T09:28:27.954Z,9.69
2023-03-18T09:30:55.883Z,9.90
2023-03-18T09:33:24.810Z,9.68
2023-03-18T09:35:51.830Z,10.72
2023-03-18T09:38:20.845Z,10.34
2023-03-18T09:41:11.052Z,10.37
2023-03-18T09:44:03.252Z,9.52
2023-03-18T09:46:58.192Z,9.88
2023-03-18T09:49:48.538Z,9.99
2023-03-18T09:52:24.339Z,10.05
2023-03-18T09:55:20.025Z,9.82
2023-03-18T09:57:50.112Z,9.98
2023-03-18T10:00:26.168Z,10.35
2023-03-18T10:03:00.252Z,9.86
2023-03-18T10:05:34.873Z,10.18
2023-03-18T10:08:17.070Z,9.51
2023-03-18T10:10:47.718Z,9.25
2023-03-18T10:13:52.568Z,8.87
2023-03-18T10:16:28.241Z,9.35
2023-03-18T10:18:55.765Z,9.14
2023-03-18T10:21:35.329Z,9.64
2023-03-18T10:24:30.769Z,9.27
2023-03-18T10:27:10.699Z,9.05
2023-03-18T10:30:18.469Z,8.48
2023-03-18T10:33:19.191Z,8.61
2023-03-18T10:36:03.251Z,9.23
2023-03-18T10:38:45.264Z,9.40
2023-03-18T10:41:32.623Z,8.62
2023-03-18T10:44:25.612Z,8.42
2023-03-18T10:47:00.905Z,8.58
2023-03-18T10:49:31.442Z,8.53
2023-03-18T10:52:10.293Z,8.41
2023-03-18T10:54:41.723Z,7.99
2023-03-18T10:57:16.058Z,8.29
2023-03-18T10:59:47.719Z,7.94
2023-03-18T11:02:33.264Z,8.26
2023-03-18T11:05:05.174Z,7.81
2023-03-18T11:07:32.360Z,8.14
2023-03-18T11:10:13.416Z,8.14
2023-03-18T11:12:40.498Z,7.68
2023-03-18T11:15:13.030Z,8.00
2023-03-18T11:17:40.960Z,7.71
2023-03-18T11:20:25.361Z,7.70
2023-03-18T11:22:55.800Z,8.00
2023-03-18T11:25:26.764Z,7.84
2023-03-18T11:28:04.491Z,7.95
2023-03-18T11:30:45.560Z,8.29
2023-03-18T11:33:12.712Z,7.94
2023-03-18T11:35:45.470Z,8.05
2023-03-18T11:38:18.935Z,8.11
2023-03-18T11:40:46.696Z,8.53
2023-03-18T11:43:22.362Z,8.15
2023-03-18T11:45:52.355Z,8.33
2023-03-18T11:48:38.347Z,8.38
2023-03-18T11:51:42.446Z,8.61
2023-03-18T11:54:26.625Z,8.69
2023-03-18T11:57:01.780Z,8.75
2023-03-18T11:59:52.673Z,8.46
2023-03-18T12:02:42.765Z,8.31
2023-03-18T12:05:41.015Z,8.41
2023-03-18T12:08:09.911Z,8.74
2023-03-18T12:10:41.214Z,8.65
2023-03-18T12:13:51.337Z,8.58
2023-03-18T12:16:27.940Z,8.46
2023-03-18T12:19:30.063Z,8.53
2023-03-18T12:22:24.088Z,8.88
2023-03-18T12:25:09.327Z,8.72
2023-03-18T12:28:06.316Z,8.79
2023-03-18T12:30:42.680Z,8.59
2023-03-18T12:33:34.153Z,8.35
2023-03-18T12:36:04.107Z,8.22
2023-03-18T12:38:53.450Z,8.21
2023-03-18T12:41:29.660Z,8.19
2023-03-18T12:44:15.148Z,8.13
2023-03-18T12:46:53.990Z,7.91
2023-03-18T12:49:53.512Z,8.17
2023-03-18T12:52:40.315Z,8.19
2023-03-18T12:55:16.358Z,8.49
2023-03-18T12:58:20.405Z,8.28
2023-03-18T13:01:18.415Z,7.77
2023-03-18T13:04:07.721Z,7.93
2023-03-18T13:06:51.547Z,8.41
2023-03-18T13:09:51.734Z,8.55
2023-03-18T13:12:28.984Z,8.79
2023-03-18T13:15:07.204Z,8.34
2023-03-18T13:17:41.267Z,8.14
2023-03-18T13:20:14.645Z,7.93
2023-03-18T13:22:44.234Z,7.54
2023-03-18T13:25:14.045Z,7.33
2023-03-18T13:28:05.735Z,7.62
2023-03-18T13:30:51.435Z,7.36
2023-03-18T13:33:43.031Z,7.38
2023-03-18T13:36:10.584Z,7.33
2023-03-18T13:39:15.258Z,7.12
2023-03-18T13:41:52.364Z,7.06
2023-03-18T13:44:25.565Z,7.21
2023-03-18T13:47:03.659Z,6.88
2023-03-18T13:49:32.869Z,6.89
2023-03-18T13:52:03.965Z,6.72
2023-03-18T13:54:36.716Z,6.63
2023-03-18T13:57:54.211Z,6.91
2023-03-18T14:00:40.625Z,6.86
2023-03-18T14:03:13.504Z,6.89
2023-03-18T14:05:42.702Z,6.75
2023-03-18T14:08:36.168Z,6.47
2023-03-18T14:11:19.916Z,6.34
2023-03-18T14:13:55.478Z,6.67
2023-03-18T14:16:30.313Z,6.68
2023-03-18T14:19:06.249Z,6.63
2023-03-18T14:21:34.446Z,6.34
2023-03-18T14:24:26.234Z,6.76
2023-03-18T14:27:05.349Z,6.80
2023-03-18T14:29:35.209Z,6.80
2023-03-18T14:32:08.561Z,7.00
2023-03-18T14:34:55.249Z,6.45
2023-03-18T14:37:30.944Z,6.94
2023-03-18T14:40:17.132Z,6.77
2023-03-18T14:43:10.580Z,6.62
2023-03-18T14:45:44.897Z,6.51
2023-03-18T14:48:19.115Z,6.46
2023-03-18T14:50:49.782Z,6.48
2023-03-18T14:53:40.342Z,6.96
2023-03-18T14:56:18.365Z,6.82
2023-03-18T14:58:47.742Z,6.76
2023-03-18T15:01:17.938Z,6.95
2023-03-18T15:03:49.942Z,6.53
2023-03-18T15:06:29.345Z,6.78
2023-03-18T15:09:08.486Z,7.22
2023-03-18T15:11:41.450Z,6.70
2023-03-18T15:14:30.151Z,6.74
2023-03-18T15:17:01.102Z,7.08
2023-03-18T15:19:29.521Z,7.15
2023-03-18T15:22:03.618Z,6.98
2023-03-18T15:24:31.029Z,6.80
2023-03-18T15:26:59.350Z,6.83
2023-03-18T15:29:33.963Z,6.98
2023-03-18T15:32:20.278Z,6.75
2023-03-18T15:35:06.568Z,6.55
2023-03-18T15:37:40.764Z,6.32
2023-03-18T15:40:32.259Z,6.40
2023-03-18T15:43:18.198Z,6.49
2023-03-18T15:45:52.156Z,6.30
2023-03-18T15:48:27.170Z,6.25
2023-03-18T15:50:58.432Z,6.33
2023-03-18T15:53:34.663Z,6.31
2023-03-18T15:56:19.932Z,6.33
2023-03-18T15:59:06.474Z,6.27
2023-03-18T16:01:35.413Z,6.38
2023-03-18T16:04:06.694Z,6.51
2023-03-18T16:06:35.113Z,6.23
2023-03-18T16:09:14.002Z,6.52
2023-03-18T16:11:41.459Z,6.59
2023-03-18T16:14:15.082Z,7.06
2023-03-18T16:16:42.655Z,6.86
2023-03-18T16:19:25.155Z,7.10
2023-03-18T16:21:53.125Z,6.44
2023-03-18T16:24:20.488Z,6.42
2023-03-18T16:26:47.876Z,6.70
2023-03-18T16:29:16.935Z,6.56
2023-03-18T16:31:44.957Z,6.66
2023-03-18T16:34:17.189Z,6.74
2023-03-18T16:36:44.507Z,6.89
2023-03-18T16:39:27.476Z,6.61
2023-03-18T16:41:54.940Z,6.89
2023-03-18T16:44:23.742Z,7.19
2023-03-18T16:46:54.635Z,7.20
2023-03-18T16:49:26.220Z,7.37
2023-03-18T16:51:53.966Z,7.47
2023-03-18T16:54:42.971Z,7.02
2023-03-18T16:57:17.606Z,6.88
2023-03-18T16:59:49.986Z,7.25
2023-03-18T17:02:31.371Z,7.89
2023-03-18T17:04:59.039Z,7.83
2023-03-18T17:07:26.796Z,8.09
2023-03-18T17:09:53.760Z,8.11
2023-03-18T17:12:22.033Z,7.83
2023-03-18T17:14:54.829Z,7.23
2023-03-18T17:17:21.781Z,7.09
2023-03-18T17:19:49.001Z,7.07
2023-03-18T17:22:25.880Z,6.83
2023-03-18T17:24:53.007Z,7.23
2023-03-18T17:27:26.868Z,7.47
2023-03-18T17:29:53.977Z,7.68
2023-03-18T17:32:22.358Z,7.75
2023-03-18T17:34:51.487Z,7.26
2023-03-18T17:37:19.296Z,7.66
2023-03-18T17:39:47.195Z,7.93
2023-03-18T17:42:28.186Z,8.21
2023-03-18T17:44:55.585Z,8.28
2023-03-18T17:47:22.903Z,7.59
2023-03-18T17:49:49.895Z,7.75
2023-03-18T17:52:22.214Z,7.38
2023-03-18T17:54:49.892Z,7.02
2023-03-18T17:57:18.313Z,7.45
2023-03-18T17:59:46.113Z,7.66
2023-03-18T18:02:21.327Z,7.77
2023-03-18T18:04:48.484Z,7.23
2023-03-18T18:07:21.903Z,7.13
2023-03-18T18:09:49.886Z,7.76
2023-03-18T18:12:22.107Z,7.89
2023-03-18T18:14:50.229Z,6.95
2023-03-18T18:17:18.344Z,6.81
2023-03-18T18:19:45.698Z,6.49
2023-03-18T18:22:22.771Z,6.43
2023-03-18T18:24:51.639Z,6.75
2023-03-18T18:27:19.487Z,7.19
2023-03-18T18:29:47.014Z,7.11
2023-03-18T18:32:15.638Z,7.37
2023-03-18T18:34:42.762Z,7.07
2023-03-18T18:37:09.968Z,7.76
2023-03-18T18:39:36.967Z,8.01
2023-03-18T18:42:04.562Z,7.70
2023-03-18T18:44:31.931Z,7.54
2023-03-18T18:46:58.998Z,7.33
2023-03-18T18:49:26.119Z,8.15
2023-03-18T18:51:55.107Z,7.71
2023-03-18T18:54:23.543Z,6.84
2023-03-18T18:56:51.374Z,6.90
2023-03-18T18:59:30.940Z,7.47
2023-03-18T19:01:58.603Z,8.09
2023-03-18T19:04:25.716Z,7.49
2023-03-18T19:06:53.880Z,8.23
2023-03-18T19:09:26.105Z,8.08
2023-03-18T19:11:56.252Z,8.01
2023-03-18T19:14:27.467Z,7.67
2023-03-18T19:16:58.395Z,7.48
2023-03-18T19:19:31.418Z,7.70
2023-03-18T19:21:58.998Z,7.70
2023-03-18T19:24:37.001Z,7.73
2023-03-18T19:27:07.237Z,7.26
2023-03-18T19:29:34.406Z,7.37
2023-03-18T19:32:02.035Z,7.77
2023-03-18T19:34:32.354Z,8.14
2023-03-18T19:37:02.877Z,7.67
2023-03-18T19:39:30.149Z,7.84
2023-03-18T19:41:57.194Z,8.03
2023-03-18T19:44:26.275Z,8.41
2023-03-18T19:46:56.672Z,7.44
2023-03-18T19:49:32.539Z,7.25
2023-03-18T19:52:00.207Z,7.80
2023-03-18T19:54:32.479Z,7.68
2023-03-18T19:57:22.725Z,8.11
2023-03-18T19:59:51.434Z,7.55
2023-03-18T20:02:25.187Z,7.44
2023-03-18T20:04:54.961Z,8.06
2023-03-18T20:07:23.950Z,7.87
2023-03-18T20:09:51.576Z,7.20
2023-03-18T20:12:25.926Z,7.73
2023-03-18T20:14:53.441Z,7.45
2023-03-18T20:17:37.590Z,7.37
2023-03-18T20:20:07.508Z,7.69
2023-03-18T20:22:40.875Z,8.19
2023-03-18T20:25:15.843Z,8.70
2023-03-18T20:27:43.000Z,8.60
2023-03-18T20:30:31.080Z,8.53
2023-03-18T20:32:58.496Z,7.21
2023-03-18T20:35:28.984Z,7.50
2023-03-18T20:37:58.872Z,8.24
2023-03-18T20:40:28.410Z,8.26
2023-03-18T20:42:55.959Z,7.88
2023-03-18T20:45:24.868Z,8.04
2023-03-18T20:47:51.875Z,8.34
2023-03-18T20:50:22.882Z,7.81
2023-03-18T20:52:50.804Z,8.17
2023-03-18T20:55:27.015Z,8.36
2023-03-18T20:57:54.537Z,8.20
2023-03-18T21:00:24.393Z,8.22
2023-03-18T21:02:54.382Z,8.43
2023-03-18T21:05:22.484Z,8.56
2023-03-18T21:07:49.592Z,8.59
2023-03-18T21:10:37.348Z,8.45
2023-03-18T21:13:26.052Z,8.30
2023-03-18T21:15:53.524Z,8.59
2023-03-18T21:18:20.750Z,8.55
2023-03-18T21:20:47.987Z,8.53
2023-03-18T21:23:26.917Z,8.57
2023-03-18T21:25:54.832Z,8.88
2023-03-18T21:28:23.833Z,8.36
2023-03-18T21:30:58.131Z,8.42
2023-03-18T21:33:27.985Z,8.64
2023-03-18T21:35:58.308Z,7.88
2023-03-18T21:38:35.094Z,7.47
2023-03-18T21:41:02.788Z,7.76
2023-03-18T21:43:35.858Z,7.83
2023-03-18T21:46:04.939Z,7.59
2023-03-18T21:48:32.348Z,7.85
2023-03-18T21:50:59.803Z,8.51
2023-03-18T21:53:28.250Z,7.91
2023-03-18T21:55:55.930Z,7.80
2023-03-18T21:58:25.808Z,7.76
2023-03-18T22:00:55.857Z,7.29
2023-03-18T22:03:24.900Z,7.59
2023-03-18T22:05:52.917Z,8.11
2023-03-18T22:08:21.278Z,7.85
2023-03-18T22:10:50.660Z,8.41
2023-03-18T22:13:26.162Z,8.37
2023-03-18T22:15:54.778Z,7.72
2023-03-18T22:18:22.753Z,8.11
2023-03-18T22:20:51.634Z,8.40
2023-03-18T22:23:24.394Z,8.38
2023-03-18T22:25:53.937Z,8.05
2023-03-18T22:28:22.272Z,7.24
2023-03-18T22:30:56.167Z,7.02
2023-03-18T22:33:28.096Z,7.08
2023-03-18T22:35:55.628Z,7.28
2023-03-18T22:38:24.465Z,7.66
2023-03-18T22:40:54.454Z,7.36
2023-03-18T22:43:28.335Z,7.90
2023-03-18T22:45:56.796Z,7.94
2023-03-18T22:48:23.955Z,7.66
2023-03-18T22:50:51.672Z,7.32
2023-03-18T22:53:23.093Z,7.11
2023-03-18T22:55:53.789Z,7.54
2023-03-18T22:58:27.181Z,7.42
2023-03-18T23:00:55.266Z,7.66
2023-03-18T23:03:26.667Z,7.21
2023-03-18T23:05:55.295Z,7.02
2023-03-18T23:08:22.882Z,6.71
2023-03-18T23:10:51.629Z,6.70
2023-03-18T23:13:39.379Z,7.29
2023-03-18T23:16:09.351Z,7.85
2023-03-18T23:18:37.606Z,7.56
2023-03-18T23:21:05.253Z,7.79
2023-03-18T23:23:32.385Z,8.02
2023-03-18T23:25:59.601Z,7.61
2023-03-18T23:28:26.617Z,7.10
2023-03-18T23:30:53.932Z,7.56
2023-03-18T23:33:20.938Z,7.40
2023-03-18T23:35:48.978Z,7.78
2023-03-18T23:38:16.310Z,7.22
2023-03-18T23:40:43.424Z,7.39
2023-03-18T23:43:10.509Z,7.63
2023-03-18T23:45:38.783Z,8.05
2023-03-18T23:48:06.853Z,7.80
2023-03-18T23:50:34.357Z,8.24
2023-03-18T23:53:01.906Z,8.34
2023-03-18T23:55:34.933Z,8.47
2023-03-18T23:58:03.866Z,8.25
